Terminal Aerodrome Forecast
Issued by NWS

Home | Current Version | Previous Version | Text Only | Print | Product List | Glossary On
Versions: 1 2 3 4 5 6 7 8 9 10 11 12 13 14 15 16 17 18 19 20
000
FTUS41 KCAR 182326
TAFBHB
TAF
KBHB 182326Z 1900/1924 VRB03KT P6SM SKC
     FM191300 21008G15KT P6SM BKN150
     FM192000 21012G20KT P6SM BKN050
     FM192230 22014G23KT P6SM BKN035=

USA.gov is the U.S. government's official web portal to all federal, state and local government web resources and services.